Time;durP1;ratioP1;P1;durP2;ratioP2;P2;SDS_P1;SDS_P2;PMS_P1;PMS_P2;Temp;Humidity;BMP_temperature;BMP_pressure;BME280_temperature;BME280_humidity;BME280_pressure;Samples;Min_cycle;Max_cycle;Signal;HPM_P1;HPM_P2
2021/08/22 00:01:12;;;;;;;3.75;2.58;;;18.30;90.50;;;;;;5025770;28;20018;-72
2021/08/22 00:03:38;;;;;;;3.47;2.60;;;18.20;90.40;;;;;;5028909;28;20460;-71
2021/08/22 00:06:04;;;;;;;3.90;2.40;;;18.20;90.40;;;;;;5007598;28;20037;-72
2021/08/22 00:08:29;;;;;;;2.83;2.38;;;18.30;90.40;;;;;;5008752;28;20037;-72
2021/08/22 00:10:55;;;;;;;3.63;2.30;;;18.20;90.50;;;;;;5026878;28;20092;-72
2021/08/22 00:13:22;;;;;;;4.32;2.33;;;18.30;90.60;;;;;;5027603;28;20036;-72
2021/08/22 00:15:48;;;;;;;3.55;2.30;;;18.20;90.50;;;;;;5026321;28;20036;-71
2021/08/22 00:18:13;;;;;;;4.65;2.80;;;18.20;90.50;;;;;;5025817;28;20025;-71
2021/08/22 00:20:39;;;;;;;3.30;2.30;;;18.20;90.40;;;;;;5009679;28;20422;-71
2021/08/22 00:23:05;;;;;;;3.97;2.53;;;18.20;90.40;;;;;;5027971;28;20512;-72
2021/08/22 00:25:31;;;;;;;3.33;2.40;;;18.20;90.30;;;;;;5028893;28;20109;-72
2021/08/22 00:27:57;;;;;;;3.13;2.50;;;18.20;90.50;;;;;;5029249;28;20029;-72
2021/08/22 00:30:23;;;;;;;4.40;2.30;;;18.20;90.70;;;;;;5014177;28;20033;-72
2021/08/22 00:32:49;;;;;;;4.47;2.65;;;18.20;90.40;;;;;;5029975;28;20076;-72
2021/08/22 00:35:15;;;;;;;3.67;2.35;;;18.20;90.20;;;;;;5013717;28;20040;-71
2021/08/22 00:37:41;;;;;;;3.65;2.30;;;18.20;90.20;;;;;;5028668;28;20033;-72
2021/08/22 00:40:07;;;;;;;2.80;2.28;;;18.20;90.20;;;;;;5029857;28;20505;-71
2021/08/22 00:42:35;;;;;;;6.03;2.45;;;18.20;90.10;;;;;;5028637;28;20836;-72
2021/08/22 00:45:06;;;;;;;4.47;2.85;;;18.20;90.10;;;;;;5027201;28;20033;-72
2021/08/22 00:47:33;;;;;;;4.55;2.60;;;18.20;90.10;;;;;;5026328;28;20049;-71
2021/08/22 00:49:59;;;;;;;3.60;2.47;;;18.20;90.10;;;;;;5014267;28;20087;-70
2021/08/22 00:52:33;;;;;;;3.30;2.35;;;18.20;90.00;;;;;;5028139;28;20037;-71
2021/08/22 00:55:02;;;;;;;5.15;2.85;;;18.10;90.10;;;;;;5028768;28;20037;-72
2021/08/22 00:57:28;;;;;;;3.03;2.15;;;18.10;90.20;;;;;;5008284;28;20200;-72
2021/08/22 00:59:53;;;;;;;3.35;2.60;;;18.10;90.10;;;;;;5027769;28;20029;-72
2021/08/22 01:02:27;;;;;;;4.32;2.60;;;18.10;90.10;;;;;;5010306;28;20075;-71
2021/08/22 01:05:18;;;;;;;4.22;2.88;;;18.10;90.10;;;;;;5030222;28;20037;-71
2021/08/22 01:08:02;;;;;;;3.47;2.13;;;18.10;90.10;;;;;;5011839;28;20030;-71
2021/08/22 01:10:29;;;;;;;3.90;2.30;;;18.00;90.10;;;;;;5029178;28;20029;-71
2021/08/22 01:13:01;;;;;;;3.08;2.38;;;18.10;90.10;;;;;;5026881;28;20030;-70
2021/08/22 01:15:30;;;;;;;2.85;2.35;;;18.00;90.20;;;;;;5028628;28;20053;-71
2021/08/22 01:17:56;;;;;;;3.55;2.55;;;18.00;90.30;;;;;;5030079;28;20072;-71
2021/08/22 01:20:55;;;;;;;3.58;1.95;;;18.00;90.40;;;;;;5028649;28;20796;-71
2021/08/22 01:23:21;;;;;;;2.92;2.05;;;18.00;90.40;;;;;;5028742;28;20057;-71
2021/08/22 01:25:49;;;;;;;3.08;2.25;;;18.10;90.40;;;;;;5029810;28;20060;-72
2021/08/22 01:28:15;;;;;;;3.20;2.13;;;18.00;90.30;;;;;;5027492;28;20460;-72
2021/08/22 01:30:49;;;;;;;4.30;2.30;;;18.00;90.30;;;;;;5011568;28;20052;-71
2021/08/22 01:33:17;;;;;;;4.38;2.15;;;18.00;90.30;;;;;;5010598;28;20064;-71
2021/08/22 01:35:44;;;;;;;2.80;2.00;;;18.00;90.20;;;;;;5012080;28;20423;-71
2021/08/22 01:38:10;;;;;;;4.47;2.00;;;18.00;90.20;;;;;;5025356;28;20627;-72
2021/08/22 01:40:37;;;;;;;2.92;2.10;;;18.00;90.10;;;;;;5029314;28;20033;-71
2021/08/22 01:43:04;;;;;;;2.20;1.80;;;18.00;90.20;;;;;;5028064;28;20033;-71
2021/08/22 01:45:31;;;;;;;3.92;2.13;;;18.00;90.30;;;;;;5036244;28;20048;-71
2021/08/22 01:47:58;;;;;;;4.18;1.98;;;17.90;90.20;;;;;;5010513;28;20083;-71
2021/08/22 01:50:24;;;;;;;2.60;1.98;;;17.90;90.20;;;;;;5025410;28;20079;-72
2021/08/22 01:52:59;;;;;;;3.33;2.20;;;17.90;90.30;;;;;;5012132;28;20033;-71
2021/08/22 01:55:25;;;;;;;2.50;2.00;;;17.90;90.30;;;;;;5011498;28;20091;-71
2021/08/22 01:57:51;;;;;;;2.58;2.05;;;17.80;90.20;;;;;;5028190;28;20033;-71
2021/08/22 02:00:16;;;;;;;4.53;2.08;;;17.80;90.10;;;;;;5026532;28;20139;-71
2021/08/22 02:02:54;;;;;;;3.00;1.80;;;17.80;90.20;;;;;;5028514;28;20025;-72
2021/08/22 02:05:22;;;;;;;2.83;1.90;;;17.80;90.30;;;;;;5024739;28;20033;-71
2021/08/22 02:07:48;;;;;;;3.80;1.83;;;17.80;90.20;;;;;;5027587;28;20072;-71
2021/08/22 02:10:21;;;;;;;3.25;2.00;;;17.80;90.20;;;;;;5027462;28;20040;-70
2021/08/22 02:12:49;;;;;;;3.58;1.95;;;17.80;90.20;;;;;;5027658;28;20494;-71
2021/08/22 02:15:23;;;;;;;2.33;1.92;;;17.80;90.20;;;;;;5028627;28;20037;-71
2021/08/22 02:17:53;;;;;;;3.63;2.20;;;17.80;90.20;;;;;;5009347;28;20139;-71
2021/08/22 02:20:20;;;;;;;3.00;1.83;;;17.70;90.20;;;;;;5028645;28;20040;-71
2021/08/22 02:22:46;;;;;;;3.75;2.10;;;17.70;90.30;;;;;;5027962;28;20040;-71
2021/08/22 02:25:13;;;;;;;2.58;1.73;;;17.70;90.20;;;;;;5034846;28;20483;-71
2021/08/22 02:27:40;;;;;;;4.00;2.00;;;17.70;90.20;;;;;;5025981;28;20107;-70
2021/08/22 02:30:07;;;;;;;2.65;1.77;;;17.60;90.20;;;;;;5035701;28;20026;-71
2021/08/22 02:32:33;;;;;;;2.90;1.90;;;17.60;90.20;;;;;;5026464;28;20089;-71
2021/08/22 02:35:00;;;;;;;3.30;1.80;;;17.60;90.10;;;;;;5030255;28;20040;-71
2021/08/22 02:37:26;;;;;;;2.72;1.92;;;17.60;90.20;;;;;;5011188;28;20049;-70
2021/08/22 02:39:51;;;;;;;2.97;1.75;;;17.60;90.30;;;;;;5025595;28;20171;-71
2021/08/22 02:42:18;;;;;;;4.35;2.08;;;17.50;90.20;;;;;;5027566;28;20034;-71
2021/08/22 02:44:44;;;;;;;3.50;1.80;;;17.50;90.20;;;;;;4993781;28;20033;-71
2021/08/22 02:47:11;;;;;;;3.55;2.25;;;17.50;90.20;;;;;;5035415;28;20025;-71
2021/08/22 02:49:37;;;;;;;2.78;1.77;;;17.50;90.20;;;;;;5025895;28;20410;-71
2021/08/22 02:52:03;;;;;;;3.83;1.63;;;17.40;90.20;;;;;;5025912;28;20511;-71
2021/08/22 02:54:29;;;;;;;2.72;1.67;;;17.40;90.30;;;;;;5028268;28;20568;-71
2021/08/22 02:56:56;;;;;;;2.40;1.50;;;17.40;90.30;;;;;;5025201;28;20053;-71
2021/08/22 02:59:22;;;;;;;1.95;1.70;;;17.40;90.20;;;;;;5026998;28;20491;-70
2021/08/22 03:01:47;;;;;;;2.83;1.80;;;17.40;90.10;;;;;;5026115;28;20029;-71
2021/08/22 03:04:13;;;;;;;2.83;1.80;;;17.40;90.10;;;;;;5010294;28;20563;-71
2021/08/22 03:06:39;;;;;;;3.30;1.70;;;17.30;89.80;;;;;;5025421;28;20026;-71
2021/08/22 03:09:04;;;;;;;2.78;1.77;;;17.30;90.10;;;;;;5010419;28;20037;-70
2021/08/22 03:11:31;;;;;;;3.97;1.58;;;17.30;90.00;;;;;;5025622;28;20140;-70
2021/08/22 03:13:57;;;;;;;3.05;2.00;;;17.30;89.80;;;;;;5026656;28;20029;-70
2021/08/22 03:16:24;;;;;;;2.97;1.58;;;17.20;90.00;;;;;;5008739;28;20036;-71
2021/08/22 03:18:50;;;;;;;3.10;1.80;;;17.20;90.00;;;;;;5009784;28;20026;-71
2021/08/22 03:21:16;;;;;;;3.22;1.92;;;17.20;90.00;;;;;;5025113;28;20049;-71
2021/08/22 03:23:42;;;;;;;3.17;1.60;;;17.30;89.80;;;;;;4994381;28;20040;-71
2021/08/22 03:26:08;;;;;;;3.15;1.88;;;17.30;89.60;;;;;;5027653;28;20108;-71
2021/08/22 03:28:34;;;;;;;3.38;1.60;;;17.20;89.30;;;;;;5022021;28;20060;-71
2021/08/22 03:31:00;;;;;;;2.35;1.60;;;17.20;89.00;;;;;;5027706;28;20018;-71
2021/08/22 03:33:26;;;;;;;2.00;1.60;;;17.20;89.30;;;;;;5026563;28;20454;-71
2021/08/22 03:35:52;;;;;;;3.28;1.80;;;17.20;89.30;;;;;;5027822;28;20029;-72
2021/08/22 03:38:17;;;;;;;4.07;1.48;;;17.20;89.20;;;;;;5026610;28;20076;-71
2021/08/22 03:40:43;;;;;;;1.60;1.35;;;17.20;89.40;;;;;;5027450;28;20044;-71
2021/08/22 03:43:09;;;;;;;3.70;1.60;;;17.20;89.00;;;;;;5026836;28;20037;-71
2021/08/22 03:45:35;;;;;;;2.08;1.58;;;17.20;89.20;;;;;;5027977;28;20033;-71
2021/08/22 03:48:00;;;;;;;3.00;1.65;;;17.20;89.10;;;;;;5025770;28;20442;-70
2021/08/22 03:50:26;;;;;;;4.25;1.80;;;17.20;89.20;;;;;;5027215;28;20761;-71
2021/08/22 03:52:52;;;;;;;2.70;1.42;;;17.20;89.30;;;;;;5027209;28;20438;-70
2021/08/22 03:55:19;;;;;;;2.05;1.50;;;17.20;88.90;;;;;;5028907;28;20029;-71
2021/08/22 03:57:45;;;;;;;4.10;1.90;;;17.20;88.80;;;;;;5017066;28;20502;-70
2021/08/22 04:00:11;;;;;;;3.40;2.00;;;17.20;89.10;;;;;;5028406;28;20040;-71
2021/08/22 04:02:37;;;;;;;3.50;1.55;;;17.20;88.90;;;;;;5027609;28;20025;-71
2021/08/22 04:05:04;;;;;;;2.92;1.63;;;17.20;89.10;;;;;;5028952;28;20033;-71
2021/08/22 04:07:30;;;;;;;1.95;1.60;;;17.20;89.00;;;;;;5027877;28;20487;-70
2021/08/22 04:09:56;;;;;;;2.22;1.73;;;17.20;89.00;;;;;;5031170;28;20056;-71
2021/08/22 04:12:23;;;;;;;3.45;1.83;;;17.10;88.70;;;;;;5012816;28;20059;-70
2021/08/22 04:14:48;;;;;;;2.47;1.48;;;17.10;89.00;;;;;;5028915;28;20033;-70
2021/08/22 04:17:14;;;;;;;2.38;1.55;;;17.10;89.20;;;;;;5028009;28;20040;-71
2021/08/22 04:19:43;;;;;;;3.25;1.33;;;17.10;89.00;;;;;;5029717;28;20052;-71
2021/08/22 04:22:09;;;;;;;3.15;1.88;;;17.10;89.20;;;;;;5028858;28;20079;-72
2021/08/22 04:24:36;;;;;;;1.90;1.30;;;17.10;89.30;;;;;;5029500;28;20029;-71
2021/08/22 04:27:02;;;;;;;1.70;1.40;;;17.10;89.80;;;;;;5012609;28;20021;-70
2021/08/22 04:29:29;;;;;;;2.28;1.95;;;17.10;89.20;;;;;;5011349;28;20539;-71
2021/08/22 04:31:55;;;;;;;2.25;1.60;;;17.10;89.30;;;;;;5010149;28;20025;-71
2021/08/22 04:34:21;;;;;;;2.03;1.50;;;17.10;89.60;;;;;;5012714;28;20039;-72
2021/08/22 04:36:47;;;;;;;6.75;1.85;;;17.10;88.80;;;;;;5011255;28;20060;-70
2021/08/22 04:39:13;;;;;;;2.38;1.50;;;17.10;88.80;;;;;;5027403;28;20099;-71
2021/08/22 04:41:43;;;;;;;2.42;1.23;;;17.10;88.70;;;;;;5026487;28;20021;-70
2021/08/22 04:44:09;;;;;;;3.42;1.70;;;17.10;88.20;;;;;;5028290;28;20049;-73
2021/08/22 04:46:35;;;;;;;3.42;1.60;;;17.10;88.60;;;;;;5028053;28;20030;-72
2021/08/22 04:49:01;;;;;;;4.15;1.90;;;17.10;88.40;;;;;;5026345;28;20033;-72
2021/08/22 04:51:26;;;;;;;2.95;1.35;;;17.10;88.40;;;;;;5029557;28;20098;-72
2021/08/22 04:53:52;;;;;;;1.73;1.20;;;17.20;88.50;;;;;;5025975;28;20040;-71
2021/08/22 04:56:18;;;;;;;3.25;1.15;;;17.20;88.20;;;;;;5027495;28;20043;-71
2021/08/22 04:58:44;;;;;;;1.52;1.15;;;17.20;88.40;;;;;;5028691;28;20040;-72
2021/08/22 05:01:09;;;;;;;3.85;1.50;;;17.20;88.00;;;;;;5025846;28;20475;-72
2021/08/22 05:03:35;;;;;;;2.22;1.40;;;17.20;88.20;;;;;;5026482;28;20033;-72
2021/08/22 05:06:01;;;;;;;2.15;1.23;;;17.20;87.70;;;;;;5028220;28;20475;-71
2021/08/22 05:08:27;;;;;;;3.22;1.40;;;17.20;87.90;;;;;;5026408;28;20029;-71
2021/08/22 05:10:56;;;;;;;1.70;1.30;;;17.20;87.80;;;;;;5027896;28;20483;-71
2021/08/22 05:13:22;;;;;;;3.30;1.48;;;17.20;87.70;;;;;;5027306;28;20041;-72
2021/08/22 05:15:50;;;;;;;3.47;2.05;;;17.20;88.00;;;;;;5027026;28;20041;-72
2021/08/22 05:18:18;;;;;;;5.75;1.92;;;17.20;87.90;;;;;;5027681;28;20115;-71
2021/08/22 05:20:43;;;;;;;2.25;1.48;;;17.20;88.00;;;;;;5026857;28;20034;-72
2021/08/22 05:23:09;;;;;;;2.22;1.40;;;17.20;87.90;;;;;;5011936;28;20474;-72
2021/08/22 05:25:35;;;;;;;3.10;1.65;;;17.30;87.80;;;;;;5027411;28;20110;-71
2021/08/22 05:28:01;;;;;;;2.17;1.42;;;17.30;87.90;;;;;;5025804;28;20029;-72
2021/08/22 05:30:26;;;;;;;3.50;1.50;;;17.30;88.60;;;;;;5028227;28;20092;-72
2021/08/22 05:32:52;;;;;;;4.18;1.30;;;17.30;87.70;;;;;;5027512;28;20042;-72
2021/08/22 05:35:18;;;;;;;2.28;1.30;;;17.30;88.00;;;;;;5026246;28;20037;-72
2021/08/22 05:37:44;;;;;;;4.10;1.50;;;17.30;87.70;;;;;;5025287;28;20104;-72
2021/08/22 05:40:10;;;;;;;3.08;1.60;;;17.30;87.70;;;;;;5009294;28;20026;-72
2021/08/22 05:42:35;;;;;;;1.67;1.30;;;17.30;88.00;;;;;;5010547;28;20025;-71
2021/08/22 05:45:01;;;;;;;2.33;1.80;;;17.30;88.00;;;;;;5029105;28;20040;-72
2021/08/22 05:47:27;;;;;;;5.97;1.58;;;17.30;87.90;;;;;;5010868;28;20055;-72
2021/08/22 05:49:52;;;;;;;2.05;1.40;;;17.30;87.60;;;;;;5008608;28;20386;-72
2021/08/22 05:52:18;;;;;;;4.28;1.92;;;17.30;87.40;;;;;;5008429;28;20052;-71
2021/08/22 05:54:44;;;;;;;3.03;1.70;;;17.30;88.00;;;;;;5028488;28;20029;-71
2021/08/22 05:57:10;;;;;;;2.58;1.42;;;17.30;87.80;;;;;;5027241;28;20026;-71
2021/08/22 05:59:35;;;;;;;3.03;1.48;;;17.20;87.70;;;;;;5012015;28;20674;-71
2021/08/22 06:02:02;;;;;;;3.08;1.42;;;17.30;88.10;;;;;;5025306;28;20026;-71
2021/08/22 06:04:27;;;;;;;2.25;1.60;;;17.30;88.50;;;;;;5030073;28;20055;-72
2021/08/22 06:06:53;;;;;;;1.98;1.50;;;17.30;88.90;;;;;;5026729;28;20438;-72
2021/08/22 06:09:19;;;;;;;3.33;1.60;;;17.30;89.50;;;;;;5026812;28;20041;-72
2021/08/22 06:11:44;;;;;;;2.08;1.45;;;17.20;90.00;;;;;;5029277;28;20033;-72
2021/08/22 06:14:10;;;;;;;3.55;1.70;;;17.20;90.40;;;;;;5028710;28;20042;-71
2021/08/22 06:16:36;;;;;;;4.03;1.55;;;17.10;90.70;;;;;;5029153;28;20068;-71
2021/08/22 06:19:02;;;;;;;2.67;1.85;;;17.00;90.60;;;;;;5027666;28;20029;-72
2021/08/22 06:21:28;;;;;;;2.88;1.60;;;17.00;90.50;;;;;;5011640;28;20025;-72
2021/08/22 06:23:57;;;;;;;2.63;1.55;;;17.00;90.80;;;;;;5029352;28;20036;-72
2021/08/22 06:26:25;;;;;;;3.17;2.00;;;17.00;90.80;;;;;;5012048;28;20080;-72
2021/08/22 06:28:51;;;;;;;1.90;1.45;;;17.00;90.60;;;;;;5029854;28;20030;-74
2021/08/22 06:31:17;;;;;;;3.47;1.73;;;17.10;90.40;;;;;;5028410;28;20086;-72
2021/08/22 06:33:43;;;;;;;3.08;1.67;;;17.10;90.50;;;;;;5027954;28;20033;-73
2021/08/22 06:36:08;;;;;;;5.88;2.15;;;17.10;90.10;;;;;;5011589;28;20033;-74
2021/08/22 06:38:34;;;;;;;2.75;1.40;;;17.20;90.20;;;;;;5027078;28;20018;-74
2021/08/22 06:41:00;;;;;;;2.17;1.45;;;17.30;90.00;;;;;;5010275;28;20029;-73
2021/08/22 06:43:26;;;;;;;3.17;1.75;;;17.30;90.10;;;;;;5026023;28;20032;-73
2021/08/22 06:45:51;;;;;;;3.25;1.67;;;17.40;89.70;;;;;;5026788;28;20029;-73
2021/08/22 06:48:17;;;;;;;2.60;1.80;;;17.50;90.00;;;;;;5027575;28;20103;-72
2021/08/22 06:50:43;;;;;;;2.10;1.50;;;17.50;89.70;;;;;;5027163;28;20033;-73
2021/08/22 06:53:09;;;;;;;2.53;1.73;;;17.50;88.50;;;;;;5025038;28;20132;-73
2021/08/22 06:55:35;;;;;;;2.35;1.48;;;17.60;88.70;;;;;;5027406;28;20049;-73
2021/08/22 06:58:01;;;;;;;4.80;1.90;;;17.60;88.40;;;;;;5007963;28;20022;-74
2021/08/22 07:00:27;;;;;;;3.35;1.50;;;17.60;88.00;;;;;;5004844;28;20411;-71
2021/08/22 07:02:53;;;;;;;3.58;1.83;;;17.60;88.20;;;;;;5008757;28;20025;-73
2021/08/22 07:05:19;;;;;;;2.63;1.60;;;17.60;88.30;;;;;;5012490;28;20188;-74
2021/08/22 07:07:45;;;;;;;2.65;1.52;;;17.60;88.30;;;;;;5029396;28;20694;-73
2021/08/22 07:10:11;;;;;;;3.00;1.60;;;17.60;88.70;;;;;;5029539;28;20042;-73
2021/08/22 07:12:37;;;;;;;2.15;1.52;;;17.60;88.80;;;;;;5030146;28;20099;-74
2021/08/22 07:15:03;;;;;;;2.92;1.60;;;17.70;89.20;;;;;;5033550;28;20069;-73
2021/08/22 07:17:29;;;;;;;2.15;1.45;;;17.70;88.70;;;;;;5034395;28;20048;-73
2021/08/22 07:19:55;;;;;;;2.15;1.35;;;17.70;88.80;;;;;;5028300;28;20022;-73
2021/08/22 07:22:20;;;;;;;2.63;1.60;;;17.70;88.70;;;;;;5029061;28;20022;-73
2021/08/22 07:24:46;;;;;;;1.92;1.30;;;17.80;88.10;;;;;;5028933;28;20499;-71
2021/08/22 07:27:12;;;;;;;3.08;1.73;;;17.80;88.10;;;;;;5011125;28;20040;-72
2021/08/22 07:29:38;;;;;;;2.50;1.60;;;17.80;87.90;;;;;;5028540;28;20029;-71
2021/08/22 07:32:04;;;;;;;3.35;1.38;;;17.80;87.80;;;;;;5029855;28;20420;-71
2021/08/22 07:34:30;;;;;;;2.17;1.50;;;17.70;87.90;;;;;;5031483;28;20025;-72
2021/08/22 07:36:56;;;;;;;3.15;1.50;;;17.70;87.90;;;;;;5016582;28;20121;-72
2021/08/22 07:39:21;;;;;;;3.35;1.70;;;17.70;87.80;;;;;;5023041;28;20064;-71
2021/08/22 07:41:47;;;;;;;2.00;1.48;;;17.70;87.90;;;;;;5031708;28;20076;-71
2021/08/22 07:44:13;;;;;;;2.33;1.40;;;17.80;87.80;;;;;;5029290;28;20026;-71
2021/08/22 07:46:39;;;;;;;2.53;1.42;;;17.90;87.80;;;;;;5029905;28;20349;-71
2021/08/22 07:49:04;;;;;;;2.30;1.55;;;17.90;87.00;;;;;;5034910;28;20032;-72
2021/08/22 07:51:30;;;;;;;3.25;1.70;;;18.00;87.50;;;;;;5031924;28;20037;-70
2021/08/22 07:53:57;;;;;;;1.70;1.50;;;18.00;87.00;;;;;;5011685;28;20026;-70
2021/08/22 07:56:23;;;;;;;2.83;1.50;;;18.00;86.90;;;;;;5031067;28;20036;-71
2021/08/22 07:58:49;;;;;;;3.22;1.75;;;18.10;86.60;;;;;;5032435;28;20029;-71
2021/08/22 08:01:14;;;;;;;3.25;1.77;;;18.20;86.80;;;;;;5029717;28;20052;-71
2021/08/22 08:03:40;;;;;;;2.85;1.58;;;18.30;86.40;;;;;;5013451;28;20663;-70
2021/08/22 08:06:06;;;;;;;1.77;1.48;;;18.40;86.10;;;;;;5029682;28;20084;-71
2021/08/22 08:08:31;;;;;;;2.58;1.42;;;18.50;86.20;;;;;;5030366;28;20037;-69
2021/08/22 08:11:03;;;;;;;2.95;1.58;;;18.60;86.20;;;;;;5030955;28;20487;-70
2021/08/22 08:13:29;;;;;;;2.75;1.77;;;18.70;85.50;;;;;;5029674;28;20406;-69
2021/08/22 08:15:55;;;;;;;2.40;1.60;;;18.70;84.90;;;;;;5013884;28;20032;-69
2021/08/22 08:18:20;;;;;;;3.92;1.88;;;18.70;84.70;;;;;;5031588;28;20032;-70
2021/08/22 08:20:46;;;;;;;3.20;1.73;;;18.70;84.60;;;;;;5032946;28;20033;-72
2021/08/22 08:23:12;;;;;;;2.33;1.67;;;18.70;85.20;;;;;;5014850;28;20025;-70
2021/08/22 08:25:37;;;;;;;3.15;1.65;;;18.70;84.80;;;;;;5031451;28;20140;-71
2021/08/22 08:28:04;;;;;;;4.03;1.80;;;18.70;84.50;;;;;;5031096;28;20495;-71
2021/08/22 08:30:29;;;;;;;3.00;1.52;;;18.60;84.10;;;;;;5032048;28;20055;-72
2021/08/22 08:32:55;;;;;;;2.88;1.92;;;18.60;85.10;;;;;;5032673;28;20531;-72
2021/08/22 08:35:21;;;;;;;1.98;1.52;;;18.70;84.60;;;;;;5013854;28;20491;-71
2021/08/22 08:37:46;;;;;;;2.33;1.65;;;18.70;84.90;;;;;;5031383;28;20033;-71
2021/08/22 08:40:16;;;;;;;2.67;1.90;;;18.70;85.20;;;;;;5029237;28;20567;-71
2021/08/22 08:42:45;;;;;;;4.20;1.98;;;18.70;85.30;;;;;;5026604;28;20036;-72
2021/08/22 08:45:21;;;;;;;1.90;1.45;;;18.70;85.40;;;;;;5028829;28;20072;-71
2021/08/22 08:47:49;;;;;;;6.00;1.50;;;18.70;84.80;;;;;;5035935;28;20026;-71
2021/08/22 08:50:22;;;;;;;3.75;1.50;;;18.80;85.20;;;;;;5026532;28;20038;-71
2021/08/22 08:52:51;;;;;;;3.28;2.00;;;18.80;84.80;;;;;;5024192;28;20048;-74
2021/08/22 08:55:43;;;;;;;2.85;1.75;;;18.70;84.40;;;;;;5013624;28;20534;-72
2021/08/22 08:58:09;;;;;;;2.85;1.60;;;18.70;84.20;;;;;;5011192;28;20609;-70
2021/08/22 09:00:37;;;;;;;3.67;1.58;;;18.80;84.90;;;;;;5009439;28;20021;-69
2021/08/22 09:03:04;;;;;;;1.75;1.40;;;18.80;84.50;;;;;;5027879;28;20646;-69
2021/08/22 09:05:44;;;;;;;3.65;1.52;;;18.70;84.00;;;;;;5031158;28;20040;-70
2021/08/22 09:08:44;;;;;;;2.38;1.58;;;18.80;84.30;;;;;;5030767;28;20068;-70
2021/08/22 09:11:15;;;;;;;2.55;1.60;;;18.90;84.20;;;;;;5030326;28;20124;-69
2021/08/22 09:14:19;;;;;;;3.08;1.98;;;18.90;84.00;;;;;;5029933;28;20029;-70
2021/08/22 09:17:23;;;;;;;2.15;1.50;;;18.90;83.60;;;;;;5029802;28;20029;-69
2021/08/22 09:20:16;;;;;;;2.60;1.30;;;18.90;83.90;;;;;;5030883;28;20124;-69
2021/08/22 09:23:20;;;;;;;2.47;1.92;;;18.80;84.30;;;;;;5027348;28;20372;-69
2021/08/22 09:26:23;;;;;;;2.33;1.90;;;18.80;83.90;;;;;;5030226;28;20422;-70
2021/08/22 09:29:26;;;;;;;1.73;1.45;;;18.80;84.20;;;;;;5030298;28;20392;-69
2021/08/22 09:32:29;;;;;;;2.22;1.55;;;18.80;84.60;;;;;;5026991;28;20025;-69
2021/08/22 09:35:14;;;;;;;3.75;1.63;;;18.80;84.70;;;;;;5030941;28;20029;-70
2021/08/22 09:38:17;;;;;;;1.88;1.45;;;18.80;84.50;;;;;;5029566;28;20025;-70
2021/08/22 09:41:01;;;;;;;2.58;1.70;;;18.70;84.40;;;;;;5029656;28;20047;-69
2021/08/22 09:44:04;;;;;;;2.80;1.50;;;18.60;84.20;;;;;;5029468;28;20360;-69
2021/08/22 09:47:07;;;;;;;5.32;1.98;;;18.50;84.50;;;;;;5011361;28;20026;-69
2021/08/22 09:50:11;;;;;;;2.25;1.42;;;18.50;84.80;;;;;;5029577;28;20162;-69
2021/08/22 09:53:14;;;;;;;2.47;1.63;;;18.50;85.10;;;;;;5028902;28;20025;-69
2021/08/22 09:56:18;;;;;;;3.67;1.92;;;18.50;85.10;;;;;;5028319;28;20446;-70
2021/08/22 09:59:20;;;;;;;2.53;1.70;;;18.50;85.90;;;;;;5029551;28;20041;-69
2021/08/22 10:01:55;;;;;;;3.15;1.80;;;18.50;86.00;;;;;;5028008;28;20033;-69
2021/08/22 10:04:30;;;;;;;3.85;1.65;;;18.50;86.20;;;;;;5030133;28;20069;-70
2021/08/22 10:07:08;;;;;;;3.97;2.03;;;18.40;86.50;;;;;;5011356;28;20506;-69
2021/08/22 10:09:48;;;;;;;2.50;1.65;;;18.30;88.40;;;;;;5028807;28;20033;-69
2021/08/22 10:12:16;;;;;;;2.97;2.20;;;18.10;90.40;;;;;;5028878;28;20483;-69
2021/08/22 10:14:43;;;;;;;5.07;2.30;;;17.90;91.40;;;;;;5030205;28;20040;-69
2021/08/22 10:17:26;;;;;;;3.97;2.40;;;17.70;92.60;;;;;;5029946;28;20527;-69
2021/08/22 10:19:54;;;;;;;3.67;2.30;;;17.50;93.30;;;;;;5021870;28;20041;-69
2021/08/22 10:22:40;;;;;;;5.82;2.72;;;17.30;94.70;;;;;;5028649;28;20029;-69
2021/08/22 10:25:18;;;;;;;4.55;2.60;;;17.10;95.20;;;;;;5029848;28;20073;-69
2021/08/22 10:27:46;;;;;;;3.72;2.50;;;17.00;95.60;;;;;;5012052;28;20029;-69
2021/08/22 10:30:18;;;;;;;3.20;2.30;;;16.90;95.90;;;;;;5028459;28;20037;-70
2021/08/22 10:32:56;;;;;;;4.47;2.40;;;16.80;96.00;;;;;;5029337;28;20034;-69
2021/08/22 10:35:26;;;;;;;3.50;2.55;;;16.80;96.30;;;;;;5029658;28;20030;-69
2021/08/22 10:37:52;;;;;;;3.72;2.53;;;16.80;96.40;;;;;;5028308;28;20537;-69
2021/08/22 10:40:33;;;;;;;5.68;2.88;;;16.90;96.50;;;;;;5029462;28;20041;-69
2021/08/22 10:43:10;;;;;;;5.30;2.67;;;17.00;96.60;;;;;;5029070;28;20026;-69
2021/08/22 10:45:52;;;;;;;4.80;2.50;;;17.00;96.60;;;;;;5026951;28;20681;-69
2021/08/22 10:48:23;;;;;;;4.03;2.83;;;16.90;96.50;;;;;;5027838;28;20037;-70
2021/08/22 10:53:31;;;;;;;5.55;2.83;;;17.00;96.60;;;;;;5027225;28;20037;-70
2021/08/22 10:55:58;;;;;;;3.70;2.70;;;17.00;96.70;;;;;;5026381;28;20037;-69
2021/08/22 10:58:55;;;;;;;3.63;2.50;;;17.00;96.60;;;;;;5008972;28;20048;-71
2021/08/22 11:01:22;;;;;;;3.55;2.33;;;17.00;96.50;;;;;;5022264;28;20109;-70
2021/08/22 11:04:17;;;;;;;4.22;2.33;;;17.10;96.60;;;;;;5029490;28;20079;-70
2021/08/22 11:07:03;;;;;;;4.00;2.50;;;17.20;96.60;;;;;;5025509;28;20045;-68
2021/08/22 11:09:32;;;;;;;5.55;2.53;;;17.30;96.40;;;;;;5025070;28;20041;-70
2021/08/22 11:11:58;;;;;;;6.72;2.40;;;17.40;96.50;;;;;;5026455;28;20041;-70
2021/08/22 11:14:24;;;;;;;4.43;2.70;;;17.40;96.30;;;;;;5029191;28;20049;-69
2021/08/22 11:16:49;;;;;;;3.78;2.58;;;17.40;96.20;;;;;;5027824;28;20033;-69
2021/08/22 11:19:15;;;;;;;5.00;2.80;;;17.40;96.20;;;;;;5024723;28;20056;-70
2021/08/22 11:21:41;;;;;;;4.47;2.45;;;17.40;96.30;;;;;;5026019;28;20536;-70
2021/08/22 11:24:07;;;;;;;2.88;2.30;;;17.40;96.20;;;;;;5007016;28;20036;-71
2021/08/22 11:26:34;;;;;;;3.55;2.47;;;17.40;96.20;;;;;;5026851;28;20034;-70
2021/08/22 11:29:01;;;;;;;2.55;1.95;;;17.40;96.10;;;;;;5030440;28;20029;-70
2021/08/22 11:31:31;;;;;;;5.63;2.55;;;17.40;96.30;;;;;;5018243;28;20026;-70
2021/08/22 11:34:09;;;;;;;4.00;2.25;;;17.40;96.30;;;;;;4989291;28;20072;-70
2021/08/22 11:36:35;;;;;;;2.97;2.40;;;17.40;96.40;;;;;;5009678;28;20983;-70
2021/08/22 11:39:17;;;;;;;4.13;2.83;;;17.40;96.50;;;;;;5025102;28;20527;-70
2021/08/22 11:41:48;;;;;;;4.78;2.72;;;17.40;96.30;;;;;;5028146;28;20021;-70
2021/08/22 11:44:22;;;;;;;3.47;2.65;;;17.40;96.50;;;;;;5024576;28;20632;-70
2021/08/22 11:46:52;;;;;;;3.88;2.58;;;17.40;96.60;;;;;;5025882;28;20030;-71
2021/08/22 11:49:19;;;;;;;4.93;2.73;;;17.40;96.20;;;;;;5025329;28;20212;-70
2021/08/22 11:51:53;;;;;;;3.58;2.63;;;17.30;96.20;;;;;;5027119;28;20328;-70
2021/08/22 11:54:19;;;;;;;3.42;2.65;;;17.30;96.40;;;;;;5033787;28;20483;-69
2021/08/22 11:56:45;;;;;;;4.07;2.10;;;17.40;96.70;;;;;;5024888;28;20032;-70
2021/08/22 11:59:23;;;;;;;3.35;2.25;;;17.30;96.70;;;;;;5022947;28;20029;-70
2021/08/22 12:01:49;;;;;;;4.57;2.60;;;17.40;96.80;;;;;;5008355;28;20280;-70
2021/08/22 12:04:18;;;;;;;3.83;2.45;;;17.30;96.80;;;;;;5013077;28;20035;-69
2021/08/22 12:06:44;;;;;;;3.65;2.67;;;17.40;96.80;;;;;;5015955;28;20064;-68
2021/08/22 12:09:18;;;;;;;4.63;2.53;;;17.50;96.70;;;;;;5014714;28;20037;-69
2021/08/22 12:11:44;;;;;;;5.30;2.58;;;17.50;96.70;;;;;;5016308;28;20064;-69
2021/08/22 12:14:17;;;;;;;3.35;2.70;;;17.60;96.80;;;;;;5021903;28;20065;-69
2021/08/22 12:16:56;;;;;;;3.45;2.50;;;17.60;96.70;;;;;;5018477;28;20429;-69
2021/08/22 12:19:27;;;;;;;4.55;3.00;;;17.60;96.80;;;;;;5026955;28;20029;-69
2021/08/22 12:21:54;;;;;;;3.47;2.80;;;17.70;96.80;;;;;;5030952;28;20021;-69
2021/08/22 12:24:21;;;;;;;3.83;2.90;;;17.70;96.70;;;;;;5011370;28;20113;-69
2021/08/22 12:27:02;;;;;;;4.43;2.90;;;17.70;96.60;;;;;;5031951;28;20051;-69
2021/08/22 12:29:32;;;;;;;5.43;2.90;;;17.80;96.70;;;;;;5025780;28;20037;-69
2021/08/22 12:32:13;;;;;;;4.18;2.60;;;17.90;96.70;;;;;;5027240;28;21832;-70
2021/08/22 12:34:39;;;;;;;5.90;2.92;;;17.90;96.60;;;;;;5027868;28;20026;-69
2021/08/22 12:37:08;;;;;;;5.13;2.67;;;17.90;96.40;;;;;;5026275;28;20037;-67
2021/08/22 12:39:35;;;;;;;3.40;2.67;;;17.90;96.20;;;;;;5026177;28;20569;-67
2021/08/22 12:42:00;;;;;;;3.40;2.65;;;17.90;96.20;;;;;;5020409;28;20040;-67
2021/08/22 12:44:31;;;;;;;6.20;3.20;;;17.90;96.20;;;;;;5026674;28;21170;-70
2021/08/22 12:47:04;;;;;;;3.47;2.57;;;17.90;96.10;;;;;;5029289;28;20021;-68
2021/08/22 12:49:32;;;;;;;4.82;3.22;;;17.80;96.20;;;;;;5028918;28;20037;-68
2021/08/22 12:52:00;;;;;;;5.43;3.13;;;17.80;96.20;;;;;;5028694;28;20056;-69
2021/08/22 12:54:27;;;;;;;3.83;2.60;;;17.80;96.50;;;;;;5029129;28;20033;-69
2021/08/22 12:56:54;;;;;;;2.95;2.30;;;17.80;96.60;;;;;;5029008;28;20052;-69
2021/08/22 12:59:20;;;;;;;5.10;2.70;;;17.90;96.60;;;;;;5028479;28;20036;-68
2021/08/22 13:01:47;;;;;;;4.28;2.97;;;17.90;96.50;;;;;;5025173;28;20017;-71
2021/08/22 13:04:14;;;;;;;2.88;2.58;;;17.90;96.40;;;;;;5025066;28;20034;-68